sensor_id;sensor_type;location;lat;lon;timestamp;P1;durP1;ratioP1;P2;durP2;ratioP2
74957;SDS011;63741;42.624;26.276;2023-03-12T00:02:22;2.58;;;1.05;;
74957;SDS011;63741;42.624;26.276;2023-03-12T00:04:48;8.65;;;1.00;;
74957;SDS011;63741;42.624;26.276;2023-03-12T00:07:15;3.35;;;0.80;;
74957;SDS011;63741;42.624;26.276;2023-03-12T00:09:42;4.65;;;0.70;;
74957;SDS011;63741;42.624;26.276;2023-03-12T00:12:10;2.33;;;0.80;;
74957;SDS011;63741;42.624;26.276;2023-03-12T00:14:37;3.75;;;0.95;;
74957;SDS011;63741;42.624;26.276;2023-03-12T00:17:04;4.43;;;0.95;;
74957;SDS011;63741;42.624;26.276;2023-03-12T00:19:31;4.35;;;1.13;;
74957;SDS011;63741;42.624;26.276;2023-03-12T00:21:58;5.70;;;1.00;;
74957;SDS011;63741;42.624;26.276;2023-03-12T00:24:24;8.38;;;0.90;;
74957;SDS011;63741;42.624;26.276;2023-03-12T00:26:51;7.82;;;0.90;;
74957;SDS011;63741;42.624;26.276;2023-03-12T00:29:18;5.20;;;1.00;;
74957;SDS011;63741;42.624;26.276;2023-03-12T00:31:45;4.28;;;0.77;;
74957;SDS011;63741;42.624;26.276;2023-03-12T00:34:13;8.25;;;1.35;;
74957;SDS011;63741;42.624;26.276;2023-03-12T00:36:40;4.10;;;1.10;;
74957;SDS011;63741;42.624;26.276;2023-03-12T00:39:06;5.07;;;1.00;;
74957;SDS011;63741;42.624;26.276;2023-03-12T00:41:33;6.90;;;1.00;;
74957;SDS011;63741;42.624;26.276;2023-03-12T00:44:00;8.98;;;1.20;;
74957;SDS011;63741;42.624;26.276;2023-03-12T00:46:27;9.27;;;1.20;;
74957;SDS011;63741;42.624;26.276;2023-03-12T00:48:54;3.33;;;1.00;;
74957;SDS011;63741;42.624;26.276;2023-03-12T00:51:21;5.57;;;1.08;;
74957;SDS011;63741;42.624;26.276;2023-03-12T00:53:48;6.55;;;1.20;;
74957;SDS011;63741;42.624;26.276;2023-03-12T00:56:15;5.63;;;1.10;;
74957;SDS011;63741;42.624;26.276;2023-03-12T00:58:42;3.80;;;1.13;;
74957;SDS011;63741;42.624;26.276;2023-03-12T01:01:09;6.13;;;1.25;;
74957;SDS011;63741;42.624;26.276;2023-03-12T01:03:37;8.25;;;1.67;;
74957;SDS011;63741;42.624;26.276;2023-03-12T01:06:04;5.40;;;1.30;;
74957;SDS011;63741;42.624;26.276;2023-03-12T01:08:31;6.35;;;1.30;;
74957;SDS011;63741;42.624;26.276;2023-03-12T01:10:58;3.80;;;1.25;;
74957;SDS011;63741;42.624;26.276;2023-03-12T01:13:26;6.13;;;1.45;;
74957;SDS011;63741;42.624;26.276;2023-03-12T01:15:53;7.50;;;1.30;;
74957;SDS011;63741;42.624;26.276;2023-03-12T01:18:20;7.00;;;1.17;;
74957;SDS011;63741;42.624;26.276;2023-03-12T01:20:47;4.22;;;1.20;;
74957;SDS011;63741;42.624;26.276;2023-03-12T01:23:14;9.60;;;1.80;;
74957;SDS011;63741;42.624;26.276;2023-03-12T01:25:41;5.05;;;1.33;;
74957;SDS011;63741;42.624;26.276;2023-03-12T01:28:08;4.53;;;1.23;;
74957;SDS011;63741;42.624;26.276;2023-03-12T01:30:35;4.32;;;1.02;;
74957;SDS011;63741;42.624;26.276;2023-03-12T01:33:02;7.78;;;1.25;;
74957;SDS011;63741;42.624;26.276;2023-03-12T01:35:34;5.95;;;1.40;;
74957;SDS011;63741;42.624;26.276;2023-03-12T01:38:02;6.60;;;1.25;;
74957;SDS011;63741;42.624;26.276;2023-03-12T01:40:31;5.53;;;1.58;;
74957;SDS011;63741;42.624;26.276;2023-03-12T01:43:10;12.30;;;1.50;;
74957;SDS011;63741;42.624;26.276;2023-03-12T01:48:47;11.20;;;1.45;;
74957;SDS011;63741;42.624;26.276;2023-03-12T01:51:23;12.27;;;1.10;;
74957;SDS011;63741;42.624;26.276;2023-03-12T01:53:52;10.85;;;1.05;;
74957;SDS011;63741;42.624;26.276;2023-03-12T01:56:24;8.57;;;1.13;;
74957;SDS011;63741;42.624;26.276;2023-03-12T01:58:55;6.35;;;0.98;;
74957;SDS011;63741;42.624;26.276;2023-03-12T02:03:53;6.00;;;1.10;;
74957;SDS011;63741;42.624;26.276;2023-03-12T02:06:45;6.50;;;1.38;;
74957;SDS011;63741;42.624;26.276;2023-03-12T02:09:15;7.28;;;1.00;;
74957;SDS011;63741;42.624;26.276;2023-03-12T02:11:47;6.43;;;1.20;;
74957;SDS011;63741;42.624;26.276;2023-03-12T02:14:15;17.10;;;1.73;;
74957;SDS011;63741;42.624;26.276;2023-03-12T02:16:42;6.32;;;0.93;;
74957;SDS011;63741;42.624;26.276;2023-03-12T02:19:13;11.45;;;1.10;;
74957;SDS011;63741;42.624;26.276;2023-03-12T02:21:47;3.88;;;0.90;;
74957;SDS011;63741;42.624;26.276;2023-03-12T02:24:24;4.40;;;1.08;;
74957;SDS011;63741;42.624;26.276;2023-03-12T02:27:12;4.07;;;0.88;;
74957;SDS011;63741;42.624;26.276;2023-03-12T02:29:41;9.38;;;1.05;;
74957;SDS011;63741;42.624;26.276;2023-03-12T02:32:14;3.25;;;0.80;;
74957;SDS011;63741;42.624;26.276;2023-03-12T02:34:47;6.53;;;1.20;;
74957;SDS011;63741;42.624;26.276;2023-03-12T02:37:17;3.42;;;1.15;;
74957;SDS011;63741;42.624;26.276;2023-03-12T02:39:45;5.15;;;0.93;;
74957;SDS011;63741;42.624;26.276;2023-03-12T02:42:20;9.75;;;1.15;;
74957;SDS011;63741;42.624;26.276;2023-03-12T02:44:49;9.52;;;1.10;;
74957;SDS011;63741;42.624;26.276;2023-03-12T02:47:16;3.92;;;1.08;;
74957;SDS011;63741;42.624;26.276;2023-03-12T02:49:43;9.95;;;1.20;;
74957;SDS011;63741;42.624;26.276;2023-03-12T02:52:10;5.10;;;0.90;;
74957;SDS011;63741;42.624;26.276;2023-03-12T02:54:37;8.02;;;0.95;;
74957;SDS011;63741;42.624;26.276;2023-03-12T02:57:04;5.30;;;1.08;;
74957;SDS011;63741;42.624;26.276;2023-03-12T02:59:32;6.57;;;1.10;;
74957;SDS011;63741;42.624;26.276;2023-03-12T03:01:59;8.18;;;1.38;;
74957;SDS011;63741;42.624;26.276;2023-03-12T03:04:27;3.08;;;1.10;;
74957;SDS011;63741;42.624;26.276;2023-03-12T03:06:56;6.70;;;0.98;;
74957;SDS011;63741;42.624;26.276;2023-03-12T03:09:23;7.25;;;1.25;;
74957;SDS011;63741;42.624;26.276;2023-03-12T03:11:50;7.53;;;1.15;;
74957;SDS011;63741;42.624;26.276;2023-03-12T03:14:18;3.70;;;1.35;;
74957;SDS011;63741;42.624;26.276;2023-03-12T03:16:48;5.75;;;1.30;;
74957;SDS011;63741;42.624;26.276;2023-03-12T03:19:16;5.18;;;1.40;;
74957;SDS011;63741;42.624;26.276;2023-03-12T03:21:43;5.88;;;1.67;;
74957;SDS011;63741;42.624;26.276;2023-03-12T03:24:10;7.30;;;1.20;;
74957;SDS011;63741;42.624;26.276;2023-03-12T03:26:37;3.30;;;1.83;;
74957;SDS011;63741;42.624;26.276;2023-03-12T03:29:04;4.38;;;1.73;;
74957;SDS011;63741;42.624;26.276;2023-03-12T03:31:31;7.75;;;1.80;;
74957;SDS011;63741;42.624;26.276;2023-03-12T03:33:58;8.05;;;1.92;;
74957;SDS011;63741;42.624;26.276;2023-03-12T03:36:25;9.10;;;1.55;;
74957;SDS011;63741;42.624;26.276;2023-03-12T03:39:00;10.65;;;1.73;;
74957;SDS011;63741;42.624;26.276;2023-03-12T03:41:28;6.75;;;1.30;;
74957;SDS011;63741;42.624;26.276;2023-03-12T03:43:56;11.60;;;1.60;;
74957;SDS011;63741;42.624;26.276;2023-03-12T03:46:24;4.28;;;1.52;;
74957;SDS011;63741;42.624;26.276;2023-03-12T03:48:57;6.07;;;1.48;;
74957;SDS011;63741;42.624;26.276;2023-03-12T03:51:25;3.90;;;1.30;;
74957;SDS011;63741;42.624;26.276;2023-03-12T03:53:57;4.75;;;1.40;;
74957;SDS011;63741;42.624;26.276;2023-03-12T03:56:26;5.22;;;1.33;;
74957;SDS011;63741;42.624;26.276;2023-03-12T03:58:55;7.47;;;1.65;;
74957;SDS011;63741;42.624;26.276;2023-03-12T04:01:23;2.13;;;1.23;;
74957;SDS011;63741;42.624;26.276;2023-03-12T04:03:50;8.13;;;1.13;;
74957;SDS011;63741;42.624;26.276;2023-03-12T04:06:17;6.40;;;1.70;;
74957;SDS011;63741;42.624;26.276;2023-03-12T04:08:45;8.20;;;1.60;;
74957;SDS011;63741;42.624;26.276;2023-03-12T04:11:15;3.58;;;1.17;;
74957;SDS011;63741;42.624;26.276;2023-03-12T04:13:46;4.20;;;1.25;;
74957;SDS011;63741;42.624;26.276;2023-03-12T04:16:16;4.00;;;1.33;;
74957;SDS011;63741;42.624;26.276;2023-03-12T04:18:44;4.65;;;1.30;;
74957;SDS011;63741;42.624;26.276;2023-03-12T04:21:12;2.58;;;1.20;;
74957;SDS011;63741;42.624;26.276;2023-03-12T04:23:41;4.72;;;1.20;;
74957;SDS011;63741;42.624;26.276;2023-03-12T04:26:10;7.72;;;1.35;;
74957;SDS011;63741;42.624;26.276;2023-03-12T04:28:38;2.80;;;0.98;;
74957;SDS011;63741;42.624;26.276;2023-03-12T04:31:06;1.42;;;0.77;;
74957;SDS011;63741;42.624;26.276;2023-03-12T04:33:38;3.85;;;1.20;;
74957;SDS011;63741;42.624;26.276;2023-03-12T04:36:07;5.47;;;1.10;;
74957;SDS011;63741;42.624;26.276;2023-03-12T04:38:37;6.65;;;2.42;;
74957;SDS011;63741;42.624;26.276;2023-03-12T04:41:05;6.20;;;0.98;;
74957;SDS011;63741;42.624;26.276;2023-03-12T04:43:37;3.22;;;1.10;;
74957;SDS011;63741;42.624;26.276;2023-03-12T04:46:04;4.65;;;1.00;;
74957;SDS011;63741;42.624;26.276;2023-03-12T04:48:33;3.72;;;1.27;;
74957;SDS011;63741;42.624;26.276;2023-03-12T04:51:01;5.18;;;1.25;;
74957;SDS011;63741;42.624;26.276;2023-03-12T04:53:28;8.93;;;1.10;;
74957;SDS011;63741;42.624;26.276;2023-03-12T04:55:56;2.08;;;0.80;;
74957;SDS011;63741;42.624;26.276;2023-03-12T04:58:23;3.72;;;0.93;;
74957;SDS011;63741;42.624;26.276;2023-03-12T05:00:51;2.67;;;0.90;;
74957;SDS011;63741;42.624;26.276;2023-03-12T05:03:18;2.97;;;1.05;;
74957;SDS011;63741;42.624;26.276;2023-03-12T05:05:45;7.78;;;1.08;;
74957;SDS011;63741;42.624;26.276;2023-03-12T05:08:13;1.17;;;0.82;;
74957;SDS011;63741;42.624;26.276;2023-03-12T05:10:40;3.13;;;1.10;;
74957;SDS011;63741;42.624;26.276;2023-03-12T05:13:16;3.33;;;1.02;;
74957;SDS011;63741;42.624;26.276;2023-03-12T05:15:47;2.38;;;0.95;;
74957;SDS011;63741;42.624;26.276;2023-03-12T05:18:17;4.22;;;1.05;;
74957;SDS011;63741;42.624;26.276;2023-03-12T05:20:46;6.93;;;1.00;;
74957;SDS011;63741;42.624;26.276;2023-03-12T05:23:23;1.65;;;0.80;;
74957;SDS011;63741;42.624;26.276;2023-03-12T05:25:50;2.28;;;1.00;;
74957;SDS011;63741;42.624;26.276;2023-03-12T05:28:17;2.30;;;1.13;;
74957;SDS011;63741;42.624;26.276;2023-03-12T05:30:46;2.03;;;1.25;;
74957;SDS011;63741;42.624;26.276;2023-03-12T05:33:13;4.57;;;1.70;;
74957;SDS011;63741;42.624;26.276;2023-03-12T05:35:40;5.85;;;0.90;;
74957;SDS011;63741;42.624;26.276;2023-03-12T05:38:06;3.90;;;1.50;;
74957;SDS011;63741;42.624;26.276;2023-03-12T05:40:34;7.00;;;1.55;;
74957;SDS011;63741;42.624;26.276;2023-03-12T05:43:00;3.67;;;0.90;;
74957;SDS011;63741;42.624;26.276;2023-03-12T05:45:27;4.63;;;1.48;;
74957;SDS011;63741;42.624;26.276;2023-03-12T05:47:57;4.20;;;1.35;;
74957;SDS011;63741;42.624;26.276;2023-03-12T05:50:26;5.55;;;1.58;;
74957;SDS011;63741;42.624;26.276;2023-03-12T05:52:53;2.55;;;1.27;;
74957;SDS011;63741;42.624;26.276;2023-03-12T05:55:20;2.53;;;1.33;;
74957;SDS011;63741;42.624;26.276;2023-03-12T05:57:47;7.00;;;2.25;;
74957;SDS011;63741;42.624;26.276;2023-03-12T06:00:14;4.57;;;1.50;;
74957;SDS011;63741;42.624;26.276;2023-03-12T06:02:50;4.50;;;1.20;;
74957;SDS011;63741;42.624;26.276;2023-03-12T06:05:17;3.97;;;1.60;;
74957;SDS011;63741;42.624;26.276;2023-03-12T06:07:44;5.63;;;2.72;;
74957;SDS011;63741;42.624;26.276;2023-03-12T06:10:11;10.93;;;4.78;;
74957;SDS011;63741;42.624;26.276;2023-03-12T06:12:38;7.20;;;2.78;;
74957;SDS011;63741;42.624;26.276;2023-03-12T06:15:05;8.70;;;2.85;;
74957;SDS011;63741;42.624;26.276;2023-03-12T06:17:33;24.80;;;16.73;;
74957;SDS011;63741;42.624;26.276;2023-03-12T06:20:01;13.60;;;9.73;;
74957;SDS011;63741;42.624;26.276;2023-03-12T06:22:28;4.13;;;3.33;;
74957;SDS011;63741;42.624;26.276;2023-03-12T06:24:55;6.57;;;4.07;;
74957;SDS011;63741;42.624;26.276;2023-03-12T06:27:23;3.22;;;1.70;;
74957;SDS011;63741;42.624;26.276;2023-03-12T06:29:50;2.67;;;1.23;;
74957;SDS011;63741;42.624;26.276;2023-03-12T06:32:17;3.13;;;1.42;;
74957;SDS011;63741;42.624;26.276;2023-03-12T06:34:44;2.40;;;1.30;;
74957;SDS011;63741;42.624;26.276;2023-03-12T06:37:11;4.25;;;1.60;;
74957;SDS011;63741;42.624;26.276;2023-03-12T06:39:38;2.58;;;1.10;;
74957;SDS011;63741;42.624;26.276;2023-03-12T06:42:05;3.88;;;1.10;;
74957;SDS011;63741;42.624;26.276;2023-03-12T06:44:33;3.88;;;1.40;;
74957;SDS011;63741;42.624;26.276;2023-03-12T06:47:00;3.85;;;1.77;;
74957;SDS011;63741;42.624;26.276;2023-03-12T06:49:27;2.00;;;1.30;;
74957;SDS011;63741;42.624;26.276;2023-03-12T06:51:57;2.05;;;1.20;;
74957;SDS011;63741;42.624;26.276;2023-03-12T06:54:24;3.40;;;1.10;;
74957;SDS011;63741;42.624;26.276;2023-03-12T06:56:51;6.78;;;1.52;;
74957;SDS011;63741;42.624;26.276;2023-03-12T06:59:18;1.95;;;0.95;;
74957;SDS011;63741;42.624;26.276;2023-03-12T07:01:47;2.80;;;1.52;;
74957;SDS011;63741;42.624;26.276;2023-03-12T07:04:14;2.20;;;1.20;;
74957;SDS011;63741;42.624;26.276;2023-03-12T07:06:42;2.45;;;1.30;;
74957;SDS011;63741;42.624;26.276;2023-03-12T07:09:09;4.13;;;1.50;;
74957;SDS011;63741;42.624;26.276;2023-03-12T07:11:36;3.83;;;1.50;;
74957;SDS011;63741;42.624;26.276;2023-03-12T07:14:03;2.45;;;1.40;;
74957;SDS011;63741;42.624;26.276;2023-03-12T07:16:30;4.97;;;1.45;;
74957;SDS011;63741;42.624;26.276;2023-03-12T07:18:57;7.05;;;3.55;;
74957;SDS011;63741;42.624;26.276;2023-03-12T07:21:24;2.88;;;1.48;;
74957;SDS011;63741;42.624;26.276;2023-03-12T07:23:51;6.22;;;2.20;;
74957;SDS011;63741;42.624;26.276;2023-03-12T07:26:18;2.40;;;1.42;;
74957;SDS011;63741;42.624;26.276;2023-03-12T07:28:46;3.90;;;1.50;;
74957;SDS011;63741;42.624;26.276;2023-03-12T07:31:12;3.53;;;1.83;;
74957;SDS011;63741;42.624;26.276;2023-03-12T07:33:39;2.30;;;1.50;;
74957;SDS011;63741;42.624;26.276;2023-03-12T07:36:07;4.13;;;2.10;;
74957;SDS011;63741;42.624;26.276;2023-03-12T07:38:34;3.78;;;1.80;;
74957;SDS011;63741;42.624;26.276;2023-03-12T07:41:01;3.85;;;1.50;;
74957;SDS011;63741;42.624;26.276;2023-03-12T07:43:27;3.78;;;1.50;;
74957;SDS011;63741;42.624;26.276;2023-03-12T07:45:54;7.25;;;1.13;;
74957;SDS011;63741;42.624;26.276;2023-03-12T07:48:21;2.90;;;1.30;;
74957;SDS011;63741;42.624;26.276;2023-03-12T07:50:48;1.50;;;1.00;;
74957;SDS011;63741;42.624;26.276;2023-03-12T07:53:16;2.97;;;1.30;;
74957;SDS011;63741;42.624;26.276;2023-03-12T07:55:44;4.35;;;1.48;;
74957;SDS011;63741;42.624;26.276;2023-03-12T07:58:13;4.03;;;2.13;;
74957;SDS011;63741;42.624;26.276;2023-03-12T08:00:41;4.15;;;1.55;;
74957;SDS011;63741;42.624;26.276;2023-03-12T08:03:08;2.72;;;1.38;;
74957;SDS011;63741;42.624;26.276;2023-03-12T08:05:35;4.53;;;1.42;;
74957;SDS011;63741;42.624;26.276;2023-03-12T08:08:02;5.75;;;1.67;;
74957;SDS011;63741;42.624;26.276;2023-03-12T08:10:29;4.35;;;1.73;;
74957;SDS011;63741;42.624;26.276;2023-03-12T08:12:56;6.80;;;1.40;;
74957;SDS011;63741;42.624;26.276;2023-03-12T08:15:23;2.35;;;1.48;;
74957;SDS011;63741;42.624;26.276;2023-03-12T08:17:50;4.10;;;1.30;;
74957;SDS011;63741;42.624;26.276;2023-03-12T08:20:17;3.72;;;1.45;;
74957;SDS011;63741;42.624;26.276;2023-03-12T08:22:44;4.05;;;2.03;;
74957;SDS011;63741;42.624;26.276;2023-03-12T08:25:11;5.18;;;2.00;;
74957;SDS011;63741;42.624;26.276;2023-03-12T08:27:38;4.80;;;1.60;;
74957;SDS011;63741;42.624;26.276;2023-03-12T08:30:05;3.47;;;1.25;;
74957;SDS011;63741;42.624;26.276;2023-03-12T08:32:33;6.03;;;1.40;;
74957;SDS011;63741;42.624;26.276;2023-03-12T08:35:00;4.03;;;1.50;;
74957;SDS011;63741;42.624;26.276;2023-03-12T08:37:27;4.80;;;1.40;;
74957;SDS011;63741;42.624;26.276;2023-03-12T08:39:54;3.45;;;1.33;;
74957;SDS011;63741;42.624;26.276;2023-03-12T08:42:21;1.90;;;1.25;;
74957;SDS011;63741;42.624;26.276;2023-03-12T08:44:48;2.50;;;1.40;;
74957;SDS011;63741;42.624;26.276;2023-03-12T08:47:14;2.17;;;1.20;;
74957;SDS011;63741;42.624;26.276;2023-03-12T08:49:41;2.78;;;1.52;;
74957;SDS011;63741;42.624;26.276;2023-03-12T08:52:08;2.50;;;1.55;;
74957;SDS011;63741;42.624;26.276;2023-03-12T08:54:35;3.25;;;1.40;;
74957;SDS011;63741;42.624;26.276;2023-03-12T08:57:02;4.03;;;1.40;;
74957;SDS011;63741;42.624;26.276;2023-03-12T08:59:29;3.22;;;1.90;;
74957;SDS011;63741;42.624;26.276;2023-03-12T09:01:56;4.65;;;2.40;;
74957;SDS011;63741;42.624;26.276;2023-03-12T09:04:23;2.95;;;1.42;;
74957;SDS011;63741;42.624;26.276;2023-03-12T09:06:50;3.47;;;1.67;;
74957;SDS011;63741;42.624;26.276;2023-03-12T09:09:17;3.20;;;1.73;;
74957;SDS011;63741;42.624;26.276;2023-03-12T09:11:44;6.45;;;1.50;;
74957;SDS011;63741;42.624;26.276;2023-03-12T09:14:11;2.85;;;1.20;;
74957;SDS011;63741;42.624;26.276;2023-03-12T09:16:58;4.85;;;1.30;;
74957;SDS011;63741;42.624;26.276;2023-03-12T09:19:25;4.22;;;1.50;;
74957;SDS011;63741;42.624;26.276;2023-03-12T09:21:52;4.50;;;1.27;;
74957;SDS011;63741;42.624;26.276;2023-03-12T09:24:19;8.23;;;1.70;;
74957;SDS011;63741;42.624;26.276;2023-03-12T09:26:46;4.93;;;1.50;;
74957;SDS011;63741;42.624;26.276;2023-03-12T09:29:13;4.30;;;1.60;;
74957;SDS011;63741;42.624;26.276;2023-03-12T09:31:40;3.10;;;1.20;;
74957;SDS011;63741;42.624;26.276;2023-03-12T09:34:07;7.40;;;1.75;;
74957;SDS011;63741;42.624;26.276;2023-03-12T09:36:34;6.75;;;2.13;;
74957;SDS011;63741;42.624;26.276;2023-03-12T09:39:01;5.47;;;1.80;;
74957;SDS011;63741;42.624;26.276;2023-03-12T09:41:29;4.05;;;1.73;;
74957;SDS011;63741;42.624;26.276;2023-03-12T09:44:03;6.78;;;2.00;;
74957;SDS011;63741;42.624;26.276;2023-03-12T09:47:06;7.03;;;2.45;;
74957;SDS011;63741;42.624;26.276;2023-03-12T09:49:40;4.65;;;1.80;;
74957;SDS011;63741;42.624;26.276;2023-03-12T09:52:23;9.90;;;2.58;;
74957;SDS011;63741;42.624;26.276;2023-03-12T09:55:00;7.38;;;2.30;;
74957;SDS011;63741;42.624;26.276;2023-03-12T09:57:33;8.02;;;2.92;;
74957;SDS011;63741;42.624;26.276;2023-03-12T10:00:00;17.27;;;6.05;;
74957;SDS011;63741;42.624;26.276;2023-03-12T10:13:57;6.72;;;2.20;;
74957;SDS011;63741;42.624;26.276;2023-03-12T10:28:45;6.18;;;2.40;;
74957;SDS011;63741;42.624;26.276;2023-03-12T10:33:56;6.22;;;2.25;;
74957;SDS011;63741;42.624;26.276;2023-03-12T10:36:32;10.75;;;3.40;;
74957;SDS011;63741;42.624;26.276;2023-03-12T10:39:14;14.05;;;2.38;;
74957;SDS011;63741;42.624;26.276;2023-03-12T10:41:45;7.40;;;2.10;;
74957;SDS011;63741;42.624;26.276;2023-03-12T10:44:22;13.57;;;1.90;;
74957;SDS011;63741;42.624;26.276;2023-03-12T10:49:26;14.07;;;2.38;;
74957;SDS011;63741;42.624;26.276;2023-03-12T10:51:58;9.60;;;3.65;;
74957;SDS011;63741;42.624;26.276;2023-03-12T10:54:35;12.45;;;4.00;;
74957;SDS011;63741;42.624;26.276;2023-03-12T10:57:06;10.45;;;3.80;;
74957;SDS011;63741;42.624;26.276;2023-03-12T10:59:34;10.48;;;3.55;;
74957;SDS011;63741;42.624;26.276;2023-03-12T11:05:28;8.18;;;3.15;;
74957;SDS011;63741;42.624;26.276;2023-03-12T11:07:55;7.22;;;3.50;;
74957;SDS011;63741;42.624;26.276;2023-03-12T11:10:24;10.05;;;1.85;;
74957;SDS011;63741;42.624;26.276;2023-03-12T11:13:19;7.57;;;1.80;;
74957;SDS011;63741;42.624;26.276;2023-03-12T11:21:25;5.88;;;1.45;;
74957;SDS011;63741;42.624;26.276;2023-03-12T11:26:24;8.75;;;2.08;;
74957;SDS011;63741;42.624;26.276;2023-03-12T11:28:58;6.65;;;1.15;;
74957;SDS011;63741;42.624;26.276;2023-03-12T11:31:32;5.25;;;1.60;;
74957;SDS011;63741;42.624;26.276;2023-03-12T11:34:04;7.57;;;1.50;;
74957;SDS011;63741;42.624;26.276;2023-03-12T11:36:37;3.88;;;1.48;;
74957;SDS011;63741;42.624;26.276;2023-03-12T11:43:03;7.07;;;1.40;;
74957;SDS011;63741;42.624;26.276;2023-03-12T11:45:28;12.65;;;2.42;;
74957;SDS011;63741;42.624;26.276;2023-03-12T11:48:09;7.75;;;1.60;;
74957;SDS011;63741;42.624;26.276;2023-03-12T11:50:57;32.55;;;3.28;;
74957;SDS011;63741;42.624;26.276;2023-03-12T12:15:30;9.07;;;1.80;;
74957;SDS011;63741;42.624;26.276;2023-03-12T12:27:23;7.85;;;1.55;;
74957;SDS011;63741;42.624;26.276;2023-03-12T12:30:02;6.85;;;2.97;;
74957;SDS011;63741;42.624;26.276;2023-03-12T12:32:35;4.85;;;3.05;;
74957;SDS011;63741;42.624;26.276;2023-03-12T12:35:37;6.80;;;3.17;;
74957;SDS011;63741;42.624;26.276;2023-03-12T12:38:13;5.05;;;1.60;;
74957;SDS011;63741;42.624;26.276;2023-03-12T12:40:55;2.30;;;1.35;;
74957;SDS011;63741;42.624;26.276;2023-03-12T12:43:48;12.07;;;1.90;;
74957;SDS011;63741;42.624;26.276;2023-03-12T12:46:37;5.68;;;1.40;;
74957;SDS011;63741;42.624;26.276;2023-03-12T12:49:12;5.75;;;2.00;;
74957;SDS011;63741;42.624;26.276;2023-03-12T12:51:48;3.35;;;1.27;;
74957;SDS011;63741;42.624;26.276;2023-03-12T12:56:50;4.72;;;1.60;;
74957;SDS011;63741;42.624;26.276;2023-03-12T13:02:18;8.80;;;1.65;;
74957;SDS011;63741;42.624;26.276;2023-03-12T13:04:48;5.50;;;2.20;;
74957;SDS011;63741;42.624;26.276;2023-03-12T13:09:46;8.77;;;2.35;;
74957;SDS011;63741;42.624;26.276;2023-03-12T13:14:52;6.70;;;1.70;;
74957;SDS011;63741;42.624;26.276;2023-03-12T13:17:24;5.68;;;1.67;;
74957;SDS011;63741;42.624;26.276;2023-03-12T13:20:16;7.68;;;3.03;;
74957;SDS011;63741;42.624;26.276;2023-03-12T13:27:59;2.40;;;1.50;;
74957;SDS011;63741;42.624;26.276;2023-03-12T13:35:32;3.45;;;1.40;;
74957;SDS011;63741;42.624;26.276;2023-03-12T13:38:16;2.60;;;1.50;;
74957;SDS011;63741;42.624;26.276;2023-03-12T13:40:59;4.68;;;2.00;;
74957;SDS011;63741;42.624;26.276;2023-03-12T13:46:04;4.55;;;3.10;;
74957;SDS011;63741;42.624;26.276;2023-03-12T13:48:33;4.35;;;2.13;;
74957;SDS011;63741;42.624;26.276;2023-03-12T13:51:09;5.70;;;1.90;;
74957;SDS011;63741;42.624;26.276;2023-03-12T13:53:42;6.15;;;2.20;;
74957;SDS011;63741;42.624;26.276;2023-03-12T13:56:18;7.75;;;1.98;;
74957;SDS011;63741;42.624;26.276;2023-03-12T13:58:54;6.65;;;2.33;;
74957;SDS011;63741;42.624;26.276;2023-03-12T14:01:34;9.50;;;4.13;;
74957;SDS011;63741;42.624;26.276;2023-03-12T14:04:07;11.00;;;3.22;;
74957;SDS011;63741;42.624;26.276;2023-03-12T14:09:49;7.03;;;2.60;;
74957;SDS011;63741;42.624;26.276;2023-03-12T14:15:15;3.05;;;1.75;;
74957;SDS011;63741;42.624;26.276;2023-03-12T14:17:53;6.30;;;2.03;;
74957;SDS011;63741;42.624;26.276;2023-03-12T14:20:24;7.00;;;2.20;;
74957;SDS011;63741;42.624;26.276;2023-03-12T14:23:05;3.22;;;1.73;;
74957;SDS011;63741;42.624;26.276;2023-03-12T14:25:35;4.95;;;1.77;;
74957;SDS011;63741;42.624;26.276;2023-03-12T14:28:10;2.78;;;1.65;;
74957;SDS011;63741;42.624;26.276;2023-03-12T14:30:43;4.70;;;2.10;;
74957;SDS011;63741;42.624;26.276;2023-03-12T14:33:55;7.03;;;1.70;;
74957;SDS011;63741;42.624;26.276;2023-03-12T14:39:41;6.85;;;2.60;;
74957;SDS011;63741;42.624;26.276;2023-03-12T14:42:23;5.57;;;1.90;;
74957;SDS011;63741;42.624;26.276;2023-03-12T14:45:01;5.72;;;1.85;;
74957;SDS011;63741;42.624;26.276;2023-03-12T14:47:45;4.00;;;1.70;;
74957;SDS011;63741;42.624;26.276;2023-03-12T14:50:16;4.00;;;1.40;;
74957;SDS011;63741;42.624;26.276;2023-03-12T14:52:45;6.70;;;1.70;;
74957;SDS011;63741;42.624;26.276;2023-03-12T14:55:13;4.78;;;1.52;;
74957;SDS011;63741;42.624;26.276;2023-03-12T14:57:44;4.47;;;1.80;;
74957;SDS011;63741;42.624;26.276;2023-03-12T15:00:24;3.38;;;1.40;;
74957;SDS011;63741;42.624;26.276;2023-03-12T15:02:53;12.52;;;1.85;;
74957;SDS011;63741;42.624;26.276;2023-03-12T15:07:53;6.82;;;5.10;;
74957;SDS011;63741;42.624;26.276;2023-03-12T15:10:27;5.50;;;3.42;;
74957;SDS011;63741;42.624;26.276;2023-03-12T15:12:56;5.10;;;2.70;;
74957;SDS011;63741;42.624;26.276;2023-03-12T15:18:25;5.63;;;4.13;;
74957;SDS011;63741;42.624;26.276;2023-03-12T15:20:55;5.32;;;2.13;;
74957;SDS011;63741;42.624;26.276;2023-03-12T15:23:24;7.28;;;3.33;;
74957;SDS011;63741;42.624;26.276;2023-03-12T15:26:29;5.95;;;3.55;;
74957;SDS011;63741;42.624;26.276;2023-03-12T15:28:55;6.40;;;3.28;;
74957;SDS011;63741;42.624;26.276;2023-03-12T15:31:41;5.63;;;2.00;;
74957;SDS011;63741;42.624;26.276;2023-03-12T15:34:10;8.52;;;2.22;;
74957;SDS011;63741;42.624;26.276;2023-03-12T15:36:45;4.38;;;1.80;;
74957;SDS011;63741;42.624;26.276;2023-03-12T15:42:06;9.00;;;2.55;;
74957;SDS011;63741;42.624;26.276;2023-03-12T15:44:45;8.75;;;1.90;;
74957;SDS011;63741;42.624;26.276;2023-03-12T15:47:18;11.70;;;2.70;;
74957;SDS011;63741;42.624;26.276;2023-03-12T15:49:48;11.63;;;2.28;;
74957;SDS011;63741;42.624;26.276;2023-03-12T16:02:39;4.22;;;1.70;;
74957;SDS011;63741;42.624;26.276;2023-03-12T16:05:17;9.75;;;3.75;;
74957;SDS011;63741;42.624;26.276;2023-03-12T16:07:50;8.52;;;3.25;;
74957;SDS011;63741;42.624;26.276;2023-03-12T16:10:19;7.85;;;4.00;;
74957;SDS011;63741;42.624;26.276;2023-03-12T16:12:48;6.72;;;3.47;;
74957;SDS011;63741;42.624;26.276;2023-03-12T16:15:25;7.32;;;3.80;;
74957;SDS011;63741;42.624;26.276;2023-03-12T16:17:56;4.90;;;2.95;;
74957;SDS011;63741;42.624;26.276;2023-03-12T16:20:23;21.77;;;10.23;;
74957;SDS011;63741;42.624;26.276;2023-03-12T16:22:50;17.25;;;8.60;;
74957;SDS011;63741;42.624;26.276;2023-03-12T16:25:17;18.23;;;9.50;;
74957;SDS011;63741;42.624;26.276;2023-03-12T16:27:48;18.95;;;8.48;;
74957;SDS011;63741;42.624;26.276;2023-03-12T16:30:42;29.17;;;14.93;;
74957;SDS011;63741;42.624;26.276;2023-03-12T16:33:05;18.60;;;9.50;;
74957;SDS011;63741;42.624;26.276;2023-03-12T16:35:34;21.10;;;12.00;;
74957;SDS011;63741;42.624;26.276;2023-03-12T16:38:02;15.95;;;7.85;;
74957;SDS011;63741;42.624;26.276;2023-03-12T16:40:29;10.35;;;5.25;;
74957;SDS011;63741;42.624;26.276;2023-03-12T16:43:03;10.10;;;5.72;;
74957;SDS011;63741;42.624;26.276;2023-03-12T16:45:33;8.10;;;4.30;;
74957;SDS011;63741;42.624;26.276;2023-03-12T16:48:03;12.57;;;6.47;;
74957;SDS011;63741;42.624;26.276;2023-03-12T16:50:31;8.68;;;3.65;;
74957;SDS011;63741;42.624;26.276;2023-03-12T16:52:58;8.10;;;3.33;;
74957;SDS011;63741;42.624;26.276;2023-03-12T16:55:26;6.53;;;3.38;;
74957;SDS011;63741;42.624;26.276;2023-03-12T16:57:59;7.00;;;3.72;;
74957;SDS011;63741;42.624;26.276;2023-03-12T17:00:29;7.20;;;4.05;;
74957;SDS011;63741;42.624;26.276;2023-03-12T17:02:58;16.73;;;5.38;;
74957;SDS011;63741;42.624;26.276;2023-03-12T17:05:27;15.00;;;5.55;;